sensor_id;sensor_type;location;lat;lon;timestamp;temperature;humidity
18339;DHT22;9295;44.484;11.240;2023-03-14T00:02:20;10.80;99.90
18339;DHT22;9295;44.484;11.240;2023-03-14T00:04:48;10.90;99.90
18339;DHT22;9295;44.484;11.240;2023-03-14T00:07:17;10.80;99.90
18339;DHT22;9295;44.484;11.240;2023-03-14T00:09:45;10.80;99.90
18339;DHT22;9295;44.484;11.240;2023-03-14T00:12:14;10.80;99.90
18339;DHT22;9295;44.484;11.240;2023-03-14T00:14:42;10.80;99.90
18339;DHT22;9295;44.484;11.240;2023-03-14T00:17:11;10.70;99.90
18339;DHT22;9295;44.484;11.240;2023-03-14T00:19:42;10.70;99.90
18339;DHT22;9295;44.484;11.240;2023-03-14T00:22:10;10.70;99.90
18339;DHT22;9295;44.484;11.240;2023-03-14T00:24:39;10.70;99.90
18339;DHT22;9295;44.484;11.240;2023-03-14T00:27:07;10.70;99.90
18339;DHT22;9295;44.484;11.240;2023-03-14T00:29:36;10.70;99.90
18339;DHT22;9295;44.484;11.240;2023-03-14T00:32:04;10.60;99.90
18339;DHT22;9295;44.484;11.240;2023-03-14T00:34:33;10.80;99.90
18339;DHT22;9295;44.484;11.240;2023-03-14T00:37:03;11.10;99.90
18339;DHT22;9295;44.484;11.240;2023-03-14T00:39:32;11.60;99.90
18339;DHT22;9295;44.484;11.240;2023-03-14T00:42:00;12.00;99.90
18339;DHT22;9295;44.484;11.240;2023-03-14T00:44:29;12.30;99.90
18339;DHT22;9295;44.484;11.240;2023-03-14T00:46:57;12.50;99.90
18339;DHT22;9295;44.484;11.240;2023-03-14T00:49:26;12.70;99.90
18339;DHT22;9295;44.484;11.240;2023-03-14T00:51:55;12.80;99.90
18339;DHT22;9295;44.484;11.240;2023-03-14T00:54:25;13.00;99.90
18339;DHT22;9295;44.484;11.240;2023-03-14T00:56:53;13.20;99.90
18339;DHT22;9295;44.484;11.240;2023-03-14T00:59:22;13.30;99.90
18339;DHT22;9295;44.484;11.240;2023-03-14T01:01:50;13.40;99.90
18339;DHT22;9295;44.484;11.240;2023-03-14T01:04:19;13.40;99.90
18339;DHT22;9295;44.484;11.240;2023-03-14T01:06:47;13.50;99.90
18339;DHT22;9295;44.484;11.240;2023-03-14T01:09:16;13.60;99.90
18339;DHT22;9295;44.484;11.240;2023-03-14T01:11:46;13.70;99.90
18339;DHT22;9295;44.484;11.240;2023-03-14T01:14:16;13.80;99.90
18339;DHT22;9295;44.484;11.240;2023-03-14T01:16:45;13.80;99.90
18339;DHT22;9295;44.484;11.240;2023-03-14T01:19:13;13.90;99.90
18339;DHT22;9295;44.484;11.240;2023-03-14T01:21:42;13.90;99.90
18339;DHT22;9295;44.484;11.240;2023-03-14T01:24:11;13.90;99.90
18339;DHT22;9295;44.484;11.240;2023-03-14T01:26:40;13.90;99.90
18339;DHT22;9295;44.484;11.240;2023-03-14T01:29:10;13.90;99.90
18339;DHT22;9295;44.484;11.240;2023-03-14T01:31:39;13.90;99.90
18339;DHT22;9295;44.484;11.240;2023-03-14T01:34:08;13.90;99.90
18339;DHT22;9295;44.484;11.240;2023-03-14T01:36:36;13.90;99.90
18339;DHT22;9295;44.484;11.240;2023-03-14T01:39:05;13.80;99.90
18339;DHT22;9295;44.484;11.240;2023-03-14T01:41:35;13.90;99.90
18339;DHT22;9295;44.484;11.240;2023-03-14T01:44:03;13.80;99.90
18339;DHT22;9295;44.484;11.240;2023-03-14T01:46:38;13.80;99.90
18339;DHT22;9295;44.484;11.240;2023-03-14T01:49:13;13.80;99.90
18339;DHT22;9295;44.484;11.240;2023-03-14T01:51:49;13.80;99.90
18339;DHT22;9295;44.484;11.240;2023-03-14T01:54:23;13.70;99.90
18339;DHT22;9295;44.484;11.240;2023-03-14T01:56:56;13.70;99.90
18339;DHT22;9295;44.484;11.240;2023-03-14T01:59:26;13.60;99.90
18339;DHT22;9295;44.484;11.240;2023-03-14T02:01:59;13.60;99.90
18339;DHT22;9295;44.484;11.240;2023-03-14T02:04:33;13.60;99.90
18339;DHT22;9295;44.484;11.240;2023-03-14T02:07:09;13.60;99.90
18339;DHT22;9295;44.484;11.240;2023-03-14T02:09:44;13.60;99.90
18339;DHT22;9295;44.484;11.240;2023-03-14T02:12:20;13.60;99.90
18339;DHT22;9295;44.484;11.240;2023-03-14T02:15:08;13.50;99.90
18339;DHT22;9295;44.484;11.240;2023-03-14T02:18:00;13.60;99.90
18339;DHT22;9295;44.484;11.240;2023-03-14T02:20:48;13.70;99.90
18339;DHT22;9295;44.484;11.240;2023-03-14T02:23:32;13.70;99.90
18339;DHT22;9295;44.484;11.240;2023-03-14T02:26:08;13.70;99.90
18339;DHT22;9295;44.484;11.240;2023-03-14T02:28:39;13.70;99.90
18339;DHT22;9295;44.484;11.240;2023-03-14T02:31:08;13.80;99.90
18339;DHT22;9295;44.484;11.240;2023-03-14T02:33:38;13.80;99.90
18339;DHT22;9295;44.484;11.240;2023-03-14T02:36:10;13.80;99.90
18339;DHT22;9295;44.484;11.240;2023-03-14T02:38:44;13.80;99.90
18339;DHT22;9295;44.484;11.240;2023-03-14T02:41:15;13.80;99.90
18339;DHT22;9295;44.484;11.240;2023-03-14T02:43:52;13.80;99.90
18339;DHT22;9295;44.484;11.240;2023-03-14T02:46:21;13.70;99.90
18339;DHT22;9295;44.484;11.240;2023-03-14T02:48:51;13.70;99.90
18339;DHT22;9295;44.484;11.240;2023-03-14T02:51:22;13.70;99.90
18339;DHT22;9295;44.484;11.240;2023-03-14T02:53:51;13.70;99.90
18339;DHT22;9295;44.484;11.240;2023-03-14T02:56:21;13.60;99.90
18339;DHT22;9295;44.484;11.240;2023-03-14T02:58:52;13.60;99.90
18339;DHT22;9295;44.484;11.240;2023-03-14T03:01:37;13.60;99.90
18339;DHT22;9295;44.484;11.240;2023-03-14T03:04:06;13.50;99.90
18339;DHT22;9295;44.484;11.240;2023-03-14T03:06:34;13.50;99.90
18339;DHT22;9295;44.484;11.240;2023-03-14T03:09:03;13.50;99.90
18339;DHT22;9295;44.484;11.240;2023-03-14T03:11:31;13.60;99.90
18339;DHT22;9295;44.484;11.240;2023-03-14T03:14:01;13.70;99.90
18339;DHT22;9295;44.484;11.240;2023-03-14T03:16:30;13.60;99.90
18339;DHT22;9295;44.484;11.240;2023-03-14T03:18:59;13.60;99.90
18339;DHT22;9295;44.484;11.240;2023-03-14T03:21:28;13.60;99.90
18339;DHT22;9295;44.484;11.240;2023-03-14T03:23:56;13.60;99.90
18339;DHT22;9295;44.484;11.240;2023-03-14T03:26:25;13.60;99.90
18339;DHT22;9295;44.484;11.240;2023-03-14T03:28:53;13.60;99.90
18339;DHT22;9295;44.484;11.240;2023-03-14T03:31:24;13.60;99.90
18339;DHT22;9295;44.484;11.240;2023-03-14T03:33:53;13.60;99.90
18339;DHT22;9295;44.484;11.240;2023-03-14T03:36:21;13.70;99.90
18339;DHT22;9295;44.484;11.240;2023-03-14T03:38:50;13.70;99.90
18339;DHT22;9295;44.484;11.240;2023-03-14T03:41:19;13.70;99.90
18339;DHT22;9295;44.484;11.240;2023-03-14T03:43:49;13.70;99.90
18339;DHT22;9295;44.484;11.240;2023-03-14T03:46:18;13.70;99.90
18339;DHT22;9295;44.484;11.240;2023-03-14T03:48:49;13.80;99.90
18339;DHT22;9295;44.484;11.240;2023-03-14T03:51:22;13.70;99.90
18339;DHT22;9295;44.484;11.240;2023-03-14T03:53:50;13.70;99.90
18339;DHT22;9295;44.484;11.240;2023-03-14T03:56:26;13.70;99.90
18339;DHT22;9295;44.484;11.240;2023-03-14T03:58:54;13.80;99.90
18339;DHT22;9295;44.484;11.240;2023-03-14T04:01:23;13.70;99.90
18339;DHT22;9295;44.484;11.240;2023-03-14T04:03:57;13.70;99.90
18339;DHT22;9295;44.484;11.240;2023-03-14T04:06:26;13.70;99.90
18339;DHT22;9295;44.484;11.240;2023-03-14T04:08:57;13.70;99.90
18339;DHT22;9295;44.484;11.240;2023-03-14T04:11:40;13.60;99.90
18339;DHT22;9295;44.484;11.240;2023-03-14T04:14:21;13.40;99.90
18339;DHT22;9295;44.484;11.240;2023-03-14T04:17:00;13.40;99.90
18339;DHT22;9295;44.484;11.240;2023-03-14T04:19:30;13.40;99.90
18339;DHT22;9295;44.484;11.240;2023-03-14T04:21:59;13.30;99.90
18339;DHT22;9295;44.484;11.240;2023-03-14T04:24:33;13.30;99.90
18339;DHT22;9295;44.484;11.240;2023-03-14T04:27:02;13.30;99.90
18339;DHT22;9295;44.484;11.240;2023-03-14T04:29:32;13.30;99.90
18339;DHT22;9295;44.484;11.240;2023-03-14T04:32:00;13.20;99.90
18339;DHT22;9295;44.484;11.240;2023-03-14T04:34:30;13.40;99.90
18339;DHT22;9295;44.484;11.240;2023-03-14T04:36:59;13.40;99.90
18339;DHT22;9295;44.484;11.240;2023-03-14T04:39:36;13.50;99.90
18339;DHT22;9295;44.484;11.240;2023-03-14T04:42:24;13.50;99.90
18339;DHT22;9295;44.484;11.240;2023-03-14T04:44:52;13.60;99.90
18339;DHT22;9295;44.484;11.240;2023-03-14T04:47:24;13.70;99.90
18339;DHT22;9295;44.484;11.240;2023-03-14T04:49:56;13.90;99.90
18339;DHT22;9295;44.484;11.240;2023-03-14T04:52:26;14.00;99.90
18339;DHT22;9295;44.484;11.240;2023-03-14T04:54:56;14.10;99.90
18339;DHT22;9295;44.484;11.240;2023-03-14T04:57:26;14.20;99.90
18339;DHT22;9295;44.484;11.240;2023-03-14T04:59:55;14.20;99.90
18339;DHT22;9295;44.484;11.240;2023-03-14T05:02:46;14.20;99.90
18339;DHT22;9295;44.484;11.240;2023-03-14T05:05:23;14.20;99.90
18339;DHT22;9295;44.484;11.240;2023-03-14T05:08:04;14.30;99.90
18339;DHT22;9295;44.484;11.240;2023-03-14T05:10:40;14.30;99.90
18339;DHT22;9295;44.484;11.240;2023-03-14T05:13:27;14.20;99.90
18339;DHT22;9295;44.484;11.240;2023-03-14T05:16:14;14.20;99.90
18339;DHT22;9295;44.484;11.240;2023-03-14T05:18:51;14.20;99.90
18339;DHT22;9295;44.484;11.240;2023-03-14T05:21:39;14.20;99.90
18339;DHT22;9295;44.484;11.240;2023-03-14T05:24:28;14.20;99.90
18339;DHT22;9295;44.484;11.240;2023-03-14T05:27:02;14.20;99.90
18339;DHT22;9295;44.484;11.240;2023-03-14T05:30:07;14.20;99.90
18339;DHT22;9295;44.484;11.240;2023-03-14T05:32:44;14.20;99.90
18339;DHT22;9295;44.484;11.240;2023-03-14T05:35:31;14.20;99.90
18339;DHT22;9295;44.484;11.240;2023-03-14T05:38:17;14.20;99.90
18339;DHT22;9295;44.484;11.240;2023-03-14T05:41:04;14.20;99.90
18339;DHT22;9295;44.484;11.240;2023-03-14T05:44:02;14.30;99.90
18339;DHT22;9295;44.484;11.240;2023-03-14T05:46:54;14.30;99.90
18339;DHT22;9295;44.484;11.240;2023-03-14T05:49:34;14.30;99.90
18339;DHT22;9295;44.484;11.240;2023-03-14T05:52:16;14.30;99.90
18339;DHT22;9295;44.484;11.240;2023-03-14T05:54:58;14.40;99.90
18339;DHT22;9295;44.484;11.240;2023-03-14T05:57:45;14.50;99.90
18339;DHT22;9295;44.484;11.240;2023-03-14T06:00:33;14.60;99.90
18339;DHT22;9295;44.484;11.240;2023-03-14T06:03:15;14.60;99.90
18339;DHT22;9295;44.484;11.240;2023-03-14T06:05:49;14.60;99.90
18339;DHT22;9295;44.484;11.240;2023-03-14T06:08:19;14.70;99.90
18339;DHT22;9295;44.484;11.240;2023-03-14T06:10:49;14.80;99.90
18339;DHT22;9295;44.484;11.240;2023-03-14T06:13:23;14.80;99.90
18339;DHT22;9295;44.484;11.240;2023-03-14T06:15:51;14.90;99.90
18339;DHT22;9295;44.484;11.240;2023-03-14T06:18:20;14.90;99.90
18339;DHT22;9295;44.484;11.240;2023-03-14T06:20:49;14.90;99.90
18339;DHT22;9295;44.484;11.240;2023-03-14T06:23:24;14.90;99.90
18339;DHT22;9295;44.484;11.240;2023-03-14T06:25:54;15.00;99.90
18339;DHT22;9295;44.484;11.240;2023-03-14T06:28:24;15.10;99.90
18339;DHT22;9295;44.484;11.240;2023-03-14T06:30:59;15.40;99.90
18339;DHT22;9295;44.484;11.240;2023-03-14T06:33:32;15.70;99.90
18339;DHT22;9295;44.484;11.240;2023-03-14T06:36:02;16.10;99.90
18339;DHT22;9295;44.484;11.240;2023-03-14T06:38:32;16.30;99.90
18339;DHT22;9295;44.484;11.240;2023-03-14T06:41:05;16.60;99.90
18339;DHT22;9295;44.484;11.240;2023-03-14T06:43:38;17.40;99.90
18339;DHT22;9295;44.484;11.240;2023-03-14T06:46:08;17.30;99.90
18339;DHT22;9295;44.484;11.240;2023-03-14T06:48:39;17.60;99.90
18339;DHT22;9295;44.484;11.240;2023-03-14T06:51:08;19.90;99.90
18339;DHT22;9295;44.484;11.240;2023-03-14T06:53:37;21.10;99.90
18339;DHT22;9295;44.484;11.240;2023-03-14T06:56:08;20.80;99.90
18339;DHT22;9295;44.484;11.240;2023-03-14T06:58:37;20.10;99.90
18339;DHT22;9295;44.484;11.240;2023-03-14T07:01:20;20.00;99.90
18339;DHT22;9295;44.484;11.240;2023-03-14T07:03:50;21.00;99.90
18339;DHT22;9295;44.484;11.240;2023-03-14T07:06:19;20.30;99.90
18339;DHT22;9295;44.484;11.240;2023-03-14T07:08:48;19.60;99.90
18339;DHT22;9295;44.484;11.240;2023-03-14T07:11:18;18.90;99.90
18339;DHT22;9295;44.484;11.240;2023-03-14T07:13:47;18.50;99.90
18339;DHT22;9295;44.484;11.240;2023-03-14T07:16:16;18.10;99.90
18339;DHT22;9295;44.484;11.240;2023-03-14T07:18:46;17.70;99.90
18339;DHT22;9295;44.484;11.240;2023-03-14T07:21:18;17.50;99.90
18339;DHT22;9295;44.484;11.240;2023-03-14T07:23:47;17.30;99.90
18339;DHT22;9295;44.484;11.240;2023-03-14T07:26:19;17.10;99.90
18339;DHT22;9295;44.484;11.240;2023-03-14T07:28:51;18.80;99.90
18339;DHT22;9295;44.484;11.240;2023-03-14T07:31:22;21.00;99.90
18339;DHT22;9295;44.484;11.240;2023-03-14T07:33:52;23.10;99.90
18339;DHT22;9295;44.484;11.240;2023-03-14T07:36:23;24.10;99.90
18339;DHT22;9295;44.484;11.240;2023-03-14T07:38:52;23.50;97.50
18339;DHT22;9295;44.484;11.240;2023-03-14T07:41:37;22.40;99.20
18339;DHT22;9295;44.484;11.240;2023-03-14T07:44:24;21.50;99.90
18339;DHT22;9295;44.484;11.240;2023-03-14T07:46:53;21.50;99.90
18339;DHT22;9295;44.484;11.240;2023-03-14T07:49:22;22.40;99.90
18339;DHT22;9295;44.484;11.240;2023-03-14T07:51:51;23.50;99.90
18339;DHT22;9295;44.484;11.240;2023-03-14T07:54:20;25.10;98.20
18339;DHT22;9295;44.484;11.240;2023-03-14T07:56:49;26.40;96.20
18339;DHT22;9295;44.484;11.240;2023-03-14T07:59:19;27.70;93.20
18339;DHT22;9295;44.484;11.240;2023-03-14T08:01:48;28.30;88.70
18339;DHT22;9295;44.484;11.240;2023-03-14T08:04:17;27.80;83.70
18339;DHT22;9295;44.484;11.240;2023-03-14T08:06:45;27.00;83.70
18339;DHT22;9295;44.484;11.240;2023-03-14T08:09:14;25.30;84.30
18339;DHT22;9295;44.484;11.240;2023-03-14T08:11:43;23.70;90.60
18339;DHT22;9295;44.484;11.240;2023-03-14T08:14:12;22.20;93.40
18339;DHT22;9295;44.484;11.240;2023-03-14T08:16:41;21.00;95.60
18339;DHT22;9295;44.484;11.240;2023-03-14T08:19:10;20.10;98.60
18339;DHT22;9295;44.484;11.240;2023-03-14T08:21:38;19.60;99.90
18339;DHT22;9295;44.484;11.240;2023-03-14T08:24:07;19.10;99.90
18339;DHT22;9295;44.484;11.240;2023-03-14T08:26:36;18.80;99.90
18339;DHT22;9295;44.484;11.240;2023-03-14T08:29:04;18.60;99.90
18339;DHT22;9295;44.484;11.240;2023-03-14T08:31:35;18.40;99.90
18339;DHT22;9295;44.484;11.240;2023-03-14T08:34:04;18.20;99.90
18339;DHT22;9295;44.484;11.240;2023-03-14T08:36:34;18.00;99.90
18339;DHT22;9295;44.484;11.240;2023-03-14T08:39:03;17.90;99.90
18339;DHT22;9295;44.484;11.240;2023-03-14T08:41:34;18.20;99.90
18339;DHT22;9295;44.484;11.240;2023-03-14T08:44:07;19.20;99.90
18339;DHT22;9295;44.484;11.240;2023-03-14T08:46:37;20.30;99.90
18339;DHT22;9295;44.484;11.240;2023-03-14T08:49:06;20.90;99.90
18339;DHT22;9295;44.484;11.240;2023-03-14T08:51:34;21.20;99.90
18339;DHT22;9295;44.484;11.240;2023-03-14T08:54:03;21.30;99.90
18339;DHT22;9295;44.484;11.240;2023-03-14T08:56:32;21.10;99.90
18339;DHT22;9295;44.484;11.240;2023-03-14T08:59:00;20.70;99.90
18339;DHT22;9295;44.484;11.240;2023-03-14T09:01:29;20.10;99.90
18339;DHT22;9295;44.484;11.240;2023-03-14T09:03:59;19.50;99.90
18339;DHT22;9295;44.484;11.240;2023-03-14T09:06:32;19.00;99.90
18339;DHT22;9295;44.484;11.240;2023-03-14T09:09:01;18.80;99.90
18339;DHT22;9295;44.484;11.240;2023-03-14T09:11:30;18.70;99.90
18339;DHT22;9295;44.484;11.240;2023-03-14T09:13:58;18.70;99.90
18339;DHT22;9295;44.484;11.240;2023-03-14T09:16:27;18.70;99.90
18339;DHT22;9295;44.484;11.240;2023-03-14T09:18:56;18.70;99.90
18339;DHT22;9295;44.484;11.240;2023-03-14T09:21:28;18.50;99.90
18339;DHT22;9295;44.484;11.240;2023-03-14T09:23:56;18.40;99.90
18339;DHT22;9295;44.484;11.240;2023-03-14T09:26:25;18.50;99.90
18339;DHT22;9295;44.484;11.240;2023-03-14T09:28:53;18.70;99.90
18339;DHT22;9295;44.484;11.240;2023-03-14T09:31:24;19.20;99.90
18339;DHT22;9295;44.484;11.240;2023-03-14T09:33:54;19.50;99.90
18339;DHT22;9295;44.484;11.240;2023-03-14T09:36:23;19.70;99.90
18339;DHT22;9295;44.484;11.240;2023-03-14T09:38:53;19.80;99.90
18339;DHT22;9295;44.484;11.240;2023-03-14T09:41:25;20.00;99.90
18339;DHT22;9295;44.484;11.240;2023-03-14T09:44:01;20.00;99.90
18339;DHT22;9295;44.484;11.240;2023-03-14T09:46:33;20.00;99.90
18339;DHT22;9295;44.484;11.240;2023-03-14T09:49:09;19.80;99.90
18339;DHT22;9295;44.484;11.240;2023-03-14T09:51:40;19.90;99.90
18339;DHT22;9295;44.484;11.240;2023-03-14T09:54:23;19.80;99.90
18339;DHT22;9295;44.484;11.240;2023-03-14T09:56:55;19.60;99.90
18339;DHT22;9295;44.484;11.240;2023-03-14T09:59:23;19.40;99.90
18339;DHT22;9295;44.484;11.240;2023-03-14T10:01:53;19.20;99.90
18339;DHT22;9295;44.484;11.240;2023-03-14T10:04:22;19.00;99.90
18339;DHT22;9295;44.484;11.240;2023-03-14T10:06:51;19.10;99.90
18339;DHT22;9295;44.484;11.240;2023-03-14T10:09:23;19.30;99.90
18339;DHT22;9295;44.484;11.240;2023-03-14T10:11:56;19.40;99.90
18339;DHT22;9295;44.484;11.240;2023-03-14T10:14:37;19.80;99.90
18339;DHT22;9295;44.484;11.240;2023-03-14T10:17:07;20.00;99.90
18339;DHT22;9295;44.484;11.240;2023-03-14T10:19:37;20.10;99.90
18339;DHT22;9295;44.484;11.240;2023-03-14T10:22:19;20.20;99.90
18339;DHT22;9295;44.484;11.240;2023-03-14T10:24:52;20.10;99.90
18339;DHT22;9295;44.484;11.240;2023-03-14T10:27:23;20.00;99.90
18339;DHT22;9295;44.484;11.240;2023-03-14T10:30:00;19.90;99.90
18339;DHT22;9295;44.484;11.240;2023-03-14T10:32:33;20.10;99.90
18339;DHT22;9295;44.484;11.240;2023-03-14T10:35:19;20.00;99.90
18339;DHT22;9295;44.484;11.240;2023-03-14T10:37:51;19.90;99.90
18339;DHT22;9295;44.484;11.240;2023-03-14T10:40:26;19.80;99.90
18339;DHT22;9295;44.484;11.240;2023-03-14T10:42:55;20.00;99.90
18339;DHT22;9295;44.484;11.240;2023-03-14T10:45:31;20.10;99.90
18339;DHT22;9295;44.484;11.240;2023-03-14T10:48:17;19.70;99.90
18339;DHT22;9295;44.484;11.240;2023-03-14T10:50:55;19.60;99.90
18339;DHT22;9295;44.484;11.240;2023-03-14T10:53:24;19.40;99.90
18339;DHT22;9295;44.484;11.240;2023-03-14T10:55:56;19.10;99.90
18339;DHT22;9295;44.484;11.240;2023-03-14T10:58:26;18.90;99.90
18339;DHT22;9295;44.484;11.240;2023-03-14T11:01:05;18.70;99.90
18339;DHT22;9295;44.484;11.240;2023-03-14T11:03:40;18.70;99.90
18339;DHT22;9295;44.484;11.240;2023-03-14T11:06:14;18.60;99.90
18339;DHT22;9295;44.484;11.240;2023-03-14T11:08:49;18.40;99.90
18339;DHT22;9295;44.484;11.240;2023-03-14T11:11:23;18.40;99.90
18339;DHT22;9295;44.484;11.240;2023-03-14T11:14:01;18.50;99.90
18339;DHT22;9295;44.484;11.240;2023-03-14T11:16:41;18.60;99.90
18339;DHT22;9295;44.484;11.240;2023-03-14T11:19:27;18.70;99.90
18339;DHT22;9295;44.484;11.240;2023-03-14T11:22:06;18.70;99.90
18339;DHT22;9295;44.484;11.240;2023-03-14T11:24:46;18.60;99.90
18339;DHT22;9295;44.484;11.240;2023-03-14T11:27:22;18.60;99.90
18339;DHT22;9295;44.484;11.240;2023-03-14T11:29:55;18.50;99.90
18339;DHT22;9295;44.484;11.240;2023-03-14T11:32:38;18.40;99.90
18339;DHT22;9295;44.484;11.240;2023-03-14T11:35:20;18.30;99.90
18339;DHT22;9295;44.484;11.240;2023-03-14T11:37:54;18.10;99.90
18339;DHT22;9295;44.484;11.240;2023-03-14T11:40:26;17.90;99.90
18339;DHT22;9295;44.484;11.240;2023-03-14T11:43:04;17.80;99.90
18339;DHT22;9295;44.484;11.240;2023-03-14T11:45:35;17.90;99.90
18339;DHT22;9295;44.484;11.240;2023-03-14T11:48:16;18.40;99.90
18339;DHT22;9295;44.484;11.240;2023-03-14T11:50:48;18.60;99.90
18339;DHT22;9295;44.484;11.240;2023-03-14T11:53:20;18.80;99.90
18339;DHT22;9295;44.484;11.240;2023-03-14T11:55:50;18.90;99.90
18339;DHT22;9295;44.484;11.240;2023-03-14T11:58:24;19.10;99.90
18339;DHT22;9295;44.484;11.240;2023-03-14T12:00:56;19.40;99.90
18339;DHT22;9295;44.484;11.240;2023-03-14T12:03:31;19.60;99.90
18339;DHT22;9295;44.484;11.240;2023-03-14T12:06:12;19.60;99.90
18339;DHT22;9295;44.484;11.240;2023-03-14T12:08:44;19.60;99.90
18339;DHT22;9295;44.484;11.240;2023-03-14T12:11:21;19.60;99.90
18339;DHT22;9295;44.484;11.240;2023-03-14T12:13:53;19.60;99.90
18339;DHT22;9295;44.484;11.240;2023-03-14T12:16:40;19.60;99.90
18339;DHT22;9295;44.484;11.240;2023-03-14T12:19:33;19.70;99.90
18339;DHT22;9295;44.484;11.240;2023-03-14T12:24:55;20.00;99.90
18339;DHT22;9295;44.484;11.240;2023-03-14T12:30:40;20.10;99.90
18339;DHT22;9295;44.484;11.240;2023-03-14T12:33:26;19.80;99.90
18339;DHT22;9295;44.484;11.240;2023-03-14T12:36:12;19.70;99.90
18339;DHT22;9295;44.484;11.240;2023-03-14T12:38:54;19.60;99.90
18339;DHT22;9295;44.484;11.240;2023-03-14T12:41:28;19.40;99.90
18339;DHT22;9295;44.484;11.240;2023-03-14T12:50:18;19.30;99.90
18339;DHT22;9295;44.484;11.240;2023-03-14T12:55:54;19.10;99.90
18339;DHT22;9295;44.484;11.240;2023-03-14T12:58:29;18.90;99.90
18339;DHT22;9295;44.484;11.240;2023-03-14T13:01:01;18.80;99.90
18339;DHT22;9295;44.484;11.240;2023-03-14T13:03:39;18.80;99.90
18339;DHT22;9295;44.484;11.240;2023-03-14T13:06:10;18.90;99.90
18339;DHT22;9295;44.484;11.240;2023-03-14T13:08:41;18.80;99.90
18339;DHT22;9295;44.484;11.240;2023-03-14T13:11:12;18.80;99.90
18339;DHT22;9295;44.484;11.240;2023-03-14T13:13:45;18.90;99.90
18339;DHT22;9295;44.484;11.240;2023-03-14T13:16:17;18.80;99.90
18339;DHT22;9295;44.484;11.240;2023-03-14T13:18:47;18.70;99.90
18339;DHT22;9295;44.484;11.240;2023-03-14T13:21:19;18.60;99.90
18339;DHT22;9295;44.484;11.240;2023-03-14T13:23:56;18.50;99.90
18339;DHT22;9295;44.484;11.240;2023-03-14T13:26:32;18.40;99.90
18339;DHT22;9295;44.484;11.240;2023-03-14T13:29:09;18.30;99.90
18339;DHT22;9295;44.484;11.240;2023-03-14T13:31:43;18.20;99.90
18339;DHT22;9295;44.484;11.240;2023-03-14T13:34:13;18.20;99.90
18339;DHT22;9295;44.484;11.240;2023-03-14T13:36:43;18.30;99.90
18339;DHT22;9295;44.484;11.240;2023-03-14T13:39:14;18.30;99.90
18339;DHT22;9295;44.484;11.240;2023-03-14T13:41:45;18.40;99.90
18339;DHT22;9295;44.484;11.240;2023-03-14T13:44:17;18.40;99.90
18339;DHT22;9295;44.484;11.240;2023-03-14T13:46:46;18.40;99.90
18339;DHT22;9295;44.484;11.240;2023-03-14T13:49:21;18.20;99.90
18339;DHT22;9295;44.484;11.240;2023-03-14T13:51:51;18.20;99.90
18339;DHT22;9295;44.484;11.240;2023-03-14T13:54:21;18.30;99.90
18339;DHT22;9295;44.484;11.240;2023-03-14T13:56:59;18.40;99.90
18339;DHT22;9295;44.484;11.240;2023-03-14T13:59:29;18.40;99.90
18339;DHT22;9295;44.484;11.240;2023-03-14T14:02:00;18.60;99.90
18339;DHT22;9295;44.484;11.240;2023-03-14T14:04:33;18.70;99.90
18339;DHT22;9295;44.484;11.240;2023-03-14T14:07:09;18.80;99.90
18339;DHT22;9295;44.484;11.240;2023-03-14T14:09:41;18.70;99.90
18339;DHT22;9295;44.484;11.240;2023-03-14T14:12:14;18.80;99.90
18339;DHT22;9295;44.484;11.240;2023-03-14T14:14:47;18.80;99.90
18339;DHT22;9295;44.484;11.240;2023-03-14T14:17:19;18.70;99.90
18339;DHT22;9295;44.484;11.240;2023-03-14T14:19:50;18.60;99.90
18339;DHT22;9295;44.484;11.240;2023-03-14T14:22:21;18.70;99.90
18339;DHT22;9295;44.484;11.240;2023-03-14T14:24:50;18.90;99.90
18339;DHT22;9295;44.484;11.240;2023-03-14T14:27:24;19.10;99.90
18339;DHT22;9295;44.484;11.240;2023-03-14T14:30:02;19.30;99.90
18339;DHT22;9295;44.484;11.240;2023-03-14T14:32:38;19.30;99.90
18339;DHT22;9295;44.484;11.240;2023-03-14T14:35:10;19.20;99.90
18339;DHT22;9295;44.484;11.240;2023-03-14T14:37:51;19.10;99.90
18339;DHT22;9295;44.484;11.240;2023-03-14T14:40:22;19.10;99.90
18339;DHT22;9295;44.484;11.240;2023-03-14T14:42:52;19.00;99.90
18339;DHT22;9295;44.484;11.240;2023-03-14T14:45:22;18.80;99.90
18339;DHT22;9295;44.484;11.240;2023-03-14T14:47:52;18.70;99.90
18339;DHT22;9295;44.484;11.240;2023-03-14T14:50:28;18.70;99.90
18339;DHT22;9295;44.484;11.240;2023-03-14T14:53:00;18.70;99.90
18339;DHT22;9295;44.484;11.240;2023-03-14T14:55:31;18.70;99.90
18339;DHT22;9295;44.484;11.240;2023-03-14T14:58:12;18.70;99.90
18339;DHT22;9295;44.484;11.240;2023-03-14T15:00:51;18.70;99.90
18339;DHT22;9295;44.484;11.240;2023-03-14T15:03:20;18.60;99.90
18339;DHT22;9295;44.484;11.240;2023-03-14T15:05:49;18.60;99.90
18339;DHT22;9295;44.484;11.240;2023-03-14T15:08:19;18.50;99.90
18339;DHT22;9295;44.484;11.240;2023-03-14T15:10:48;18.50;99.90
18339;DHT22;9295;44.484;11.240;2023-03-14T15:13:16;18.50;99.90
18339;DHT22;9295;44.484;11.240;2023-03-14T15:15:45;18.50;99.90
18339;DHT22;9295;44.484;11.240;2023-03-14T15:18:16;18.30;99.90
18339;DHT22;9295;44.484;11.240;2023-03-14T15:20:45;18.20;99.90
18339;DHT22;9295;44.484;11.240;2023-03-14T15:23:16;18.20;99.90
18339;DHT22;9295;44.484;11.240;2023-03-14T15:25:46;18.10;99.90
18339;DHT22;9295;44.484;11.240;2023-03-14T15:28:24;18.00;99.90
18339;DHT22;9295;44.484;11.240;2023-03-14T15:30:55;17.90;99.90
18339;DHT22;9295;44.484;11.240;2023-03-14T15:33:24;17.80;99.90
18339;DHT22;9295;44.484;11.240;2023-03-14T15:35:53;17.70;99.90
18339;DHT22;9295;44.484;11.240;2023-03-14T15:38:22;17.70;99.90
18339;DHT22;9295;44.484;11.240;2023-03-14T15:40:52;17.70;99.90
18339;DHT22;9295;44.484;11.240;2023-03-14T15:43:21;17.60;99.90
18339;DHT22;9295;44.484;11.240;2023-03-14T15:45:49;17.70;99.90
18339;DHT22;9295;44.484;11.240;2023-03-14T15:48:20;17.60;99.90
18339;DHT22;9295;44.484;11.240;2023-03-14T15:50:49;17.50;99.90
18339;DHT22;9295;44.484;11.240;2023-03-14T15:53:18;17.40;99.90
18339;DHT22;9295;44.484;11.240;2023-03-14T15:55:46;17.40;99.90
18339;DHT22;9295;44.484;11.240;2023-03-14T15:58:18;17.30;99.90
18339;DHT22;9295;44.484;11.240;2023-03-14T16:00:48;17.30;99.90
18339;DHT22;9295;44.484;11.240;2023-03-14T16:03:17;17.20;99.90
18339;DHT22;9295;44.484;11.240;2023-03-14T16:05:46;17.20;99.90
18339;DHT22;9295;44.484;11.240;2023-03-14T16:08:14;17.10;99.90
18339;DHT22;9295;44.484;11.240;2023-03-14T16:10:44;17.20;99.90
18339;DHT22;9295;44.484;11.240;2023-03-14T16:13:13;17.20;99.90
18339;DHT22;9295;44.484;11.240;2023-03-14T16:15:52;17.20;99.90
18339;DHT22;9295;44.484;11.240;2023-03-14T16:18:21;17.10;99.90
18339;DHT22;9295;44.484;11.240;2023-03-14T16:20:54;17.10;99.90